createdAt,value
2022-08-08T00:00:52.784Z,100837.34
2022-08-08T00:05:44.183Z,100826.19
2022-08-08T00:10:56.559Z,100824.63
2022-08-08T00:16:03.955Z,100828.84
2022-08-08T00:21:07.916Z,100833.22
2022-08-08T00:26:13.503Z,100829.28
2022-08-08T00:32:20.427Z,100830.59
2022-08-08T00:36:47.051Z,100827.56
2022-08-08T00:42:37.098Z,100828.81
2022-08-08T00:48:30.123Z,100836.69
2022-08-08T00:54:15.488Z,100840.97
2022-08-08T00:59:54.896Z,100842.31
2022-08-08T01:05:29.292Z,100833.06
2022-08-08T01:11:15.450Z,100835.13
2022-08-08T01:16:39.439Z,100833.81
2022-08-08T01:22:12.973Z,100837.06
2022-08-08T01:27:46.339Z,100835.63
2022-08-08T01:33:54.173Z,100834.47
2022-08-08T01:39:23.709Z,100833.19
2022-08-08T01:45:04.261Z,100834.34
2022-08-08T01:50:21.526Z,100841.19
2022-08-08T01:56:27.640Z,100836.06
2022-08-08T02:01:15.703Z,100833.56
2022-08-08T02:06:44.693Z,100832.13
2022-08-08T02:11:59.029Z,100836.50
2022-08-08T02:17:20.296Z,100834.38
2022-08-08T02:22:34.470Z,100832.38
2022-08-08T02:27:58.898Z,100843.34
2022-08-08T02:33:21.503Z,100836.72
2022-08-08T02:38:55.946Z,100831.66
2022-08-08T02:44:36.937Z,100833.50
2022-08-08T02:50:17.568Z,100843.06
2022-08-08T02:55:49.101Z,100838.75
2022-08-08T03:01:47.235Z,100846.06
2022-08-08T03:07:41.797Z,100851.06
2022-08-08T03:15:54.152Z,100859.81
2022-08-08T03:19:02.061Z,100853.38
2022-08-08T03:24:06.538Z,100850.09
2022-08-08T03:29:16.858Z,100853.75
2022-08-08T03:34:24.055Z,100854.09
2022-08-08T03:39:31.848Z,100860.22
2022-08-08T03:44:45.017Z,100872.13
2022-08-08T03:50:00.894Z,100868.31
2022-08-08T03:55:20.240Z,100874.63
2022-08-08T04:01:01.381Z,100875.28
2022-08-08T04:06:06.753Z,100876.59
2022-08-08T04:11:17.652Z,100880.72
2022-08-08T04:16:40.063Z,100884.88
2022-08-08T04:21:45.785Z,100896.47
2022-08-08T04:26:57.169Z,100891.16
2022-08-08T04:32:01.682Z,100891.31
2022-08-08T04:37:08.354Z,100903.75
2022-08-08T04:42:15.938Z,100908.69
2022-08-08T04:47:30.791Z,100915.66
2022-08-08T04:52:35.328Z,100909.19
2022-08-08T04:57:44.535Z,100917.66
2022-08-08T05:02:48.046Z,100917.63
2022-08-08T05:07:56.916Z,100907.97
2022-08-08T05:13:02.942Z,100920.06
2022-08-08T05:18:10.614Z,100918.69
2022-08-08T05:23:16.753Z,100925.94
2022-08-08T05:28:55.753Z,100926.56
2022-08-08T05:33:49.257Z,100932.47
2022-08-08T05:38:54.536Z,100941.06
2022-08-08T05:44:04.884Z,100939.25
2022-08-08T05:49:11.187Z,100935.75
2022-08-08T05:54:28.737Z,100949.13
2022-08-08T05:59:58.658Z,100946.59
2022-08-08T06:05:33.460Z,100956.09
2022-08-08T06:10:41.181Z,100951.50
2022-08-08T06:15:53.584Z,100954.38
2022-08-08T06:21:28.537Z,100971.59
2022-08-08T06:26:45.491Z,100969.31
2022-08-08T06:32:09.979Z,100973.25
2022-08-08T06:37:24.330Z,100972.16
2022-08-08T06:42:43.406Z,100977.59
2022-08-08T06:47:58.494Z,100971.84
2022-08-08T06:53:17.366Z,100974.06
2022-08-08T06:58:30.707Z,100976.19
2022-08-08T07:03:52.381Z,100973.50
2022-08-08T07:09:15.409Z,100974.56
2022-08-08T07:14:27.872Z,100978.84
2022-08-08T07:19:39.478Z,100985.38
2022-08-08T07:24:46.530Z,100986.72
2022-08-08T07:30:01.856Z,100991.19
2022-08-08T07:35:17.968Z,100990.97
2022-08-08T07:40:29.644Z,100992.91
2022-08-08T07:46:04.859Z,100989.22
2022-08-08T07:51:02.565Z,101001.03
2022-08-08T07:56:17.559Z,100999.16
2022-08-08T08:02:34.819Z,101009.16
2022-08-08T08:07:12.443Z,100998.63
2022-08-08T08:12:35.153Z,101004.72
2022-08-08T08:17:48.264Z,101000.97
2022-08-08T08:22:57.734Z,101001.69
2022-08-08T08:28:01.068Z,100992.59
2022-08-08T08:33:06.984Z,101001.13
2022-08-08T08:38:17.867Z,100999.47
2022-08-08T08:43:26.932Z,100993.53
2022-08-08T08:48:32.424Z,100997.66
2022-08-08T08:53:56.348Z,101002.41
2022-08-08T08:59:05.884Z,101005.91
2022-08-08T09:04:31.673Z,101003.84
2022-08-08T09:09:47.888Z,100998.84
2022-08-08T09:14:59.487Z,100996.41
2022-08-08T09:21:58.547Z,100996.00
2022-08-08T09:25:54.857Z,101000.25
2022-08-08T09:31:12.592Z,100993.44
2022-08-08T09:36:23.060Z,100988.38
2022-08-08T09:42:14.030Z,100989.31
2022-08-08T09:48:02.355Z,100992.19
2022-08-08T09:52:59.350Z,100987.59
2022-08-08T09:58:07.239Z,100981.78
2022-08-08T10:03:15.188Z,100981.59
2022-08-08T10:08:22.835Z,100979.50
2022-08-08T10:13:35.760Z,100983.09
2022-08-08T10:18:41.221Z,100971.16
2022-08-08T10:23:56.115Z,100973.97
2022-08-08T10:29:06.898Z,100966.47
2022-08-08T10:34:18.604Z,100955.19
2022-08-08T10:39:31.503Z,100959.69
2022-08-08T10:44:49.421Z,100955.19
2022-08-08T10:50:01.320Z,100951.00
2022-08-08T10:55:07.913Z,100946.56
2022-08-08T11:00:15.413Z,100940.25
2022-08-08T11:05:18.224Z,100939.44
2022-08-08T11:10:29.449Z,100931.00
2022-08-08T11:15:35.402Z,100929.53
2022-08-08T11:20:55.423Z,100934.44
2022-08-08T11:26:02.589Z,100926.34
2022-08-08T11:31:08.665Z,100933.94
2022-08-08T11:36:14.329Z,100921.63
2022-08-08T11:41:18.042Z,100910.91
2022-08-08T11:46:22.878Z,100915.34
2022-08-08T11:51:29.512Z,100916.22
2022-08-08T11:56:42.242Z,100909.81
2022-08-08T12:01:46.416Z,100908.34
2022-08-08T12:06:49.656Z,100901.28
2022-08-08T12:11:53.147Z,100903.75
2022-08-08T12:16:57.624Z,100905.50
2022-08-08T12:22:09.228Z,100903.84
2022-08-08T12:27:19.646Z,100905.13
2022-08-08T12:32:24.525Z,100909.03
2022-08-08T12:37:40.968Z,100903.28
2022-08-08T12:42:47.437Z,100900.69
2022-08-08T12:48:10.489Z,100895.56
2022-08-08T12:53:30.080Z,100891.94
2022-08-08T12:58:45.145Z,100881.66
2022-08-08T13:03:52.071Z,100888.41
2022-08-08T13:08:56.785Z,100873.66
2022-08-08T13:14:05.432Z,100872.00
2022-08-08T13:19:17.823Z,100864.88
2022-08-08T13:24:38.759Z,100872.00
2022-08-08T13:29:52.787Z,100871.47
2022-08-08T13:34:59.039Z,100865.59
2022-08-08T13:40:04.293Z,100866.84
2022-08-08T13:45:09.876Z,100862.63
2022-08-08T13:50:34.789Z,100869.13
2022-08-08T13:55:38.752Z,100864.81
2022-08-08T14:00:45.385Z,100865.34
2022-08-08T14:06:00.550Z,100857.97
2022-08-08T14:11:04.426Z,100861.81
2022-08-08T14:16:16.540Z,100866.59
2022-08-08T14:21:22.134Z,100851.56
2022-08-08T14:26:28.599Z,100860.44
2022-08-08T14:32:05.891Z,100873.19
2022-08-08T14:36:55.960Z,100855.25
2022-08-08T14:42:07.434Z,100864.72
2022-08-08T14:47:17.365Z,100857.50
2022-08-08T14:52:25.560Z,100851.66
2022-08-08T14:58:02.425Z,100856.78
2022-08-08T15:02:59.164Z,100847.69
2022-08-08T15:08:22.225Z,100840.78
2022-08-08T15:13:40.857Z,100839.41
2022-08-08T15:18:59.678Z,100828.19
2022-08-08T15:24:03.836Z,100848.03
2022-08-08T15:29:06.770Z,100844.69
2022-08-08T15:34:29.603Z,100839.72
2022-08-08T15:39:38.523Z,100842.06
2022-08-08T15:44:43.289Z,100836.59
2022-08-08T15:49:49.342Z,100842.69
2022-08-08T15:54:53.977Z,100837.59
2022-08-08T16:00:05.469Z,100838.28
2022-08-08T16:05:20.052Z,100836.28
2022-08-08T16:13:14.103Z,100838.53
2022-08-08T16:15:58.861Z,100841.28
2022-08-08T16:21:25.858Z,100835.41
2022-08-08T16:26:34.783Z,100835.41
2022-08-08T16:31:42.136Z,100835.13
2022-08-08T16:36:51.664Z,100831.06
2022-08-08T16:42:00.957Z,100834.28
2022-08-08T16:47:18.303Z,100833.78
2022-08-08T16:55:02.366Z,100839.72
2022-08-08T16:58:16.242Z,100841.47
2022-08-08T17:03:11.597Z,100840.38
2022-08-08T17:08:17.155Z,100831.09
2022-08-08T17:13:23.019Z,100835.13
2022-08-08T17:18:30.687Z,100840.75
2022-08-08T17:23:58.305Z,100852.25
2022-08-08T17:29:04.521Z,100855.25
2022-08-08T17:34:54.212Z,100852.34
2022-08-08T17:40:03.748Z,100857.97
2022-08-08T17:44:58.100Z,100860.56
2022-08-08T17:50:03.060Z,100860.88
2022-08-08T17:55:09.314Z,100870.66
2022-08-08T18:00:32.039Z,100875.84
2022-08-08T18:05:48.169Z,100882.25
2022-08-08T18:10:53.434Z,100877.63
2022-08-08T18:15:59.828Z,100879.59
2022-08-08T18:21:10.363Z,100885.97
2022-08-08T18:26:13.700Z,100903.03
2022-08-08T18:31:18.393Z,100905.50
2022-08-08T18:36:23.253Z,100904.56
2022-08-08T18:41:51.890Z,100912.78
2022-08-08T18:46:57.915Z,100924.53
2022-08-08T18:52:02.142Z,100923.75
2022-08-08T18:57:09.034Z,100932.22
2022-08-08T19:02:28.021Z,100940.44
2022-08-08T19:07:33.430Z,100940.34
2022-08-08T19:12:44.522Z,100936.38
2022-08-08T19:18:31.796Z,100955.13
2022-08-08T19:23:16.932Z,100955.22
2022-08-08T19:28:20.384Z,100957.41
2022-08-08T19:33:25.978Z,100963.50
2022-08-08T19:38:51.299Z,100963.19
2022-08-08T19:44:02.357Z,100968.47
2022-08-08T19:49:09.768Z,100983.63
2022-08-08T19:54:12.778Z,100983.06
2022-08-08T19:59:15.484Z,100977.91
2022-08-08T20:04:26.348Z,100979.84
2022-08-08T20:09:30.084Z,100983.59
2022-08-08T20:14:35.912Z,100984.09
2022-08-08T20:19:46.225Z,100987.69
2022-08-08T20:24:50.446Z,100992.44
2022-08-08T20:29:55.780Z,100991.84
2022-08-08T20:35:05.933Z,100989.38
2022-08-08T20:40:16.727Z,100981.75
2022-08-08T20:45:54.348Z,100999.69
2022-08-08T20:50:44.286Z,100996.63
2022-08-08T20:55:51.224Z,100996.63
2022-08-08T21:00:54.288Z,100997.91
2022-08-08T21:05:59.494Z,101004.47
2022-08-08T21:11:02.597Z,100998.28
2022-08-08T21:16:17.778Z,101001.94
2022-08-08T21:21:39.689Z,100996.41
2022-08-08T21:26:44.811Z,100996.56
2022-08-08T21:31:58.700Z,100996.34
2022-08-08T21:37:11.506Z,101000.00
2022-08-08T21:42:22.981Z,100999.72
2022-08-08T21:48:04.175Z,101006.50
2022-08-08T21:54:27.332Z,101005.22
2022-08-08T21:58:16.540Z,101001.03
2022-08-08T22:03:20.137Z,101006.19
2022-08-08T22:08:24.558Z,101014.38
2022-08-08T22:13:43.350Z,101012.69
2022-08-08T22:18:52.723Z,101014.91
2022-08-08T22:23:57.166Z,101005.38
2022-08-08T22:29:13.942Z,101027.50
2022-08-08T22:34:24.965Z,101024.06
2022-08-08T22:39:45.804Z,101026.28
2022-08-08T22:44:54.224Z,101031.13
2022-08-08T22:49:59.977Z,101033.16
2022-08-08T22:55:06.444Z,101032.31
2022-08-08T23:00:11.695Z,101034.19
2022-08-08T23:05:16.292Z,101044.69
2022-08-08T23:10:21.277Z,101038.63
2022-08-08T23:16:38.580Z,101040.13
2022-08-08T23:20:54.633Z,101041.06
2022-08-08T23:25:59.165Z,101040.13
2022-08-08T23:31:02.670Z,101029.69
2022-08-08T23:36:08.425Z,101035.75
2022-08-08T23:41:22.748Z,101042.38
2022-08-08T23:49:02.099Z,101045.25
2022-08-08T23:52:06.259Z,101041.50
2022-08-08T23:57:25.241Z,101048.59
